createdAt,value
2022-09-07T00:00:39.129Z,49.47
2022-09-07T00:03:24.956Z,49.60
2022-09-07T00:06:12.523Z,49.67
2022-09-07T00:08:58.623Z,49.64
2022-09-07T00:11:44.666Z,49.56
2022-09-07T00:14:30.662Z,49.76
2022-09-07T00:17:16.452Z,49.67
2022-09-07T00:20:02.683Z,49.67
2022-09-07T00:22:48.660Z,49.60
2022-09-07T00:25:40.903Z,49.87
2022-09-07T00:28:26.917Z,49.94
2022-09-07T00:31:16.078Z,49.72
2022-09-07T00:34:02.524Z,49.78
2022-09-07T00:36:48.800Z,49.96
2022-09-07T00:39:35.171Z,50.00
2022-09-07T00:42:22.334Z,50.14
2022-09-07T00:45:12.924Z,49.96
2022-09-07T00:48:17.174Z,50.03
2022-09-07T00:51:04.824Z,50.04
2022-09-07T00:53:55.558Z,50.02
2022-09-07T00:56:42.670Z,50.02
2022-09-07T00:59:35.091Z,49.94
2022-09-07T01:02:21.210Z,50.00
2022-09-07T01:05:13.929Z,49.77
2022-09-07T01:08:00.967Z,50.11
2022-09-07T01:10:47.471Z,50.22
2022-09-07T01:13:33.589Z,50.05
2022-09-07T01:17:01.280Z,50.44
2022-09-07T01:20:24.677Z,50.50
2022-09-07T01:23:41.441Z,50.53
2022-09-07T01:26:53.435Z,50.08
2022-09-07T01:29:54.429Z,50.31
2022-09-07T01:32:43.386Z,49.97
2022-09-07T01:35:45.158Z,49.88
2022-09-07T01:38:48.394Z,50.16
2022-09-07T01:41:52.884Z,50.13
2022-09-07T01:44:55.625Z,49.94
2022-09-07T01:47:46.061Z,50.00
2022-09-07T01:50:53.318Z,50.05
2022-09-07T01:53:52.229Z,50.08
2022-09-07T01:56:41.819Z,50.19
2022-09-07T01:59:36.322Z,50.27
2022-09-07T02:02:34.923Z,50.17
2022-09-07T02:05:28.598Z,50.24
2022-09-07T02:08:37.627Z,50.25
2022-09-07T02:11:30.679Z,50.34
2022-09-07T02:14:34.269Z,50.27
2022-09-07T02:17:49.368Z,50.27
2022-09-07T02:20:38.791Z,50.24
2022-09-07T02:23:33.147Z,50.32
2022-09-07T02:26:22.036Z,50.24
2022-09-07T02:29:08.425Z,50.11
2022-09-07T02:31:54.995Z,50.17
2022-09-07T02:34:41.202Z,50.23
2022-09-07T02:37:28.700Z,50.19
2022-09-07T02:40:15.107Z,50.00
2022-09-07T02:43:05.312Z,50.18
2022-09-07T02:46:22.403Z,50.54
2022-09-07T02:49:08.430Z,50.29
2022-09-07T02:52:35.877Z,50.63
2022-09-07T02:55:33.557Z,50.40
2022-09-07T02:58:29.192Z,50.56
2022-09-07T03:01:48.352Z,50.37
2022-09-07T03:05:03.732Z,50.29
2022-09-07T03:07:55.600Z,49.91
2022-09-07T03:10:43.193Z,50.36
2022-09-07T03:13:29.914Z,50.31
2022-09-07T03:16:16.590Z,50.30
2022-09-07T03:19:02.865Z,50.23
2022-09-07T03:21:48.969Z,50.24
2022-09-07T03:24:35.188Z,50.31
2022-09-07T03:27:21.461Z,50.17
2022-09-07T03:30:09.469Z,50.30
2022-09-07T03:32:55.751Z,50.34
2022-09-07T03:35:58.900Z,50.37
2022-09-07T03:38:44.972Z,50.21
2022-09-07T03:41:31.660Z,50.32
2022-09-07T03:44:17.908Z,50.31
2022-09-07T03:47:04.176Z,50.24
2022-09-07T03:49:51.450Z,50.32
2022-09-07T03:52:38.058Z,50.28
2022-09-07T03:55:24.477Z,50.47
2022-09-07T03:58:10.667Z,50.42
2022-09-07T04:00:58.327Z,50.40
2022-09-07T04:03:45.334Z,50.39
2022-09-07T04:06:31.855Z,50.39
2022-09-07T04:09:17.882Z,50.35
2022-09-07T04:12:04.959Z,50.39
2022-09-07T04:14:51.367Z,50.11
2022-09-07T04:17:37.739Z,50.54
2022-09-07T04:20:23.978Z,50.25
2022-09-07T04:23:10.451Z,50.42
2022-09-07T04:25:56.759Z,50.58
2022-09-07T04:28:42.745Z,50.45
2022-09-07T04:31:29.555Z,50.33
2022-09-07T04:34:16.072Z,50.46
2022-09-07T04:37:02.153Z,50.44
2022-09-07T04:39:48.627Z,50.76
2022-09-07T04:42:34.932Z,50.64
2022-09-07T04:45:21.189Z,50.71
2022-09-07T04:48:07.575Z,50.77
2022-09-07T04:50:53.809Z,50.80
2022-09-07T04:53:40.225Z,50.80
2022-09-07T04:56:26.736Z,50.68
2022-09-07T04:59:12.574Z,50.77
2022-09-07T05:01:58.523Z,50.70
2022-09-07T05:04:44.542Z,50.73
2022-09-07T05:07:30.288Z,50.60
2022-09-07T05:10:16.253Z,50.75
2022-09-07T05:13:02.766Z,50.54
2022-09-07T05:15:48.769Z,50.90
2022-09-07T05:18:34.718Z,50.67
2022-09-07T05:21:25.648Z,50.59
2022-09-07T05:24:11.656Z,50.70
2022-09-07T05:26:59.645Z,50.56
2022-09-07T05:30:01.130Z,50.74
2022-09-07T05:32:47.474Z,50.81
2022-09-07T05:35:33.912Z,50.87
2022-09-07T05:38:19.854Z,50.85
2022-09-07T05:41:17.995Z,51.16
2022-09-07T05:47:10.657Z,50.72
2022-09-07T05:49:57.216Z,50.62
2022-09-07T05:52:43.160Z,50.87
2022-09-07T05:55:31.394Z,50.93
2022-09-07T05:58:17.960Z,51.02
2022-09-07T06:01:09.410Z,51.12
2022-09-07T06:03:55.372Z,50.79
2022-09-07T06:06:45.235Z,51.04
2022-09-07T06:09:34.389Z,50.93
2022-09-07T06:12:20.690Z,51.08
2022-09-07T06:15:07.512Z,50.97
2022-09-07T06:17:54.015Z,50.98
2022-09-07T06:20:40.190Z,51.14
2022-09-07T06:23:26.085Z,50.85
2022-09-07T06:26:12.574Z,51.12
2022-09-07T06:28:58.886Z,51.07
2022-09-07T06:34:51.405Z,50.98
2022-09-07T06:37:37.583Z,51.14
2022-09-07T06:40:23.486Z,51.12
2022-09-07T06:43:11.798Z,51.07
2022-09-07T06:49:04.709Z,51.19
2022-09-07T06:51:51.061Z,51.20
2022-09-07T06:57:43.822Z,51.10
2022-09-07T07:00:30.362Z,51.24
2022-09-07T07:03:17.210Z,51.25
2022-09-07T07:06:04.712Z,51.32
2022-09-07T07:08:53.747Z,51.20
2022-09-07T07:11:40.176Z,51.47
2022-09-07T07:14:27.449Z,51.09
2022-09-07T07:17:14.065Z,51.22
2022-09-07T07:20:00.030Z,51.26
2022-09-07T07:22:50.628Z,51.50
2022-09-07T07:25:36.796Z,51.31
2022-09-07T07:31:33.817Z,51.47
2022-09-07T07:34:19.840Z,51.44
2022-09-07T07:37:05.930Z,51.60
2022-09-07T07:42:59.153Z,51.43
2022-09-07T07:46:03.926Z,51.56
2022-09-07T07:48:52.238Z,51.29
2022-09-07T07:54:45.192Z,51.40
2022-09-07T07:57:31.377Z,51.43
2022-09-07T08:00:27.428Z,51.50
2022-09-07T08:03:25.807Z,51.48
2022-09-07T08:06:17.584Z,51.45
2022-09-07T08:09:03.686Z,51.32
2022-09-07T08:11:49.782Z,51.33
2022-09-07T08:14:40.818Z,51.47
2022-09-07T08:17:27.193Z,51.29
2022-09-07T08:20:16.283Z,51.34
2022-09-07T08:23:02.646Z,51.29
2022-09-07T08:25:52.780Z,51.23
2022-09-07T08:28:40.555Z,51.10
2022-09-07T08:31:26.478Z,51.16
2022-09-07T08:34:12.741Z,50.95
2022-09-07T08:36:59.067Z,50.99
2022-09-07T08:39:45.000Z,50.77
2022-09-07T08:42:37.900Z,50.59
2022-09-07T08:45:35.226Z,50.86
2022-09-07T08:48:27.474Z,50.67
2022-09-07T08:51:27.490Z,50.69
2022-09-07T08:54:15.382Z,50.44
2022-09-07T09:00:14.698Z,50.50
2022-09-07T09:06:24.330Z,50.41
2022-09-07T09:09:17.040Z,50.13
2022-09-07T09:12:09.104Z,50.20
2022-09-07T09:15:10.425Z,49.96
2022-09-07T09:18:28.594Z,49.95
2022-09-07T09:21:16.594Z,49.56
2022-09-07T09:24:17.408Z,49.54
2022-09-07T09:27:03.679Z,49.28
2022-09-07T09:29:49.699Z,48.93
2022-09-07T09:32:41.724Z,48.69
2022-09-07T09:35:38.818Z,49.36
2022-09-07T09:38:34.161Z,50.15
2022-09-07T09:41:20.678Z,50.32
2022-09-07T09:44:06.547Z,50.68
2022-09-07T09:50:06.723Z,51.04
2022-09-07T09:52:53.318Z,50.95
2022-09-07T09:55:40.934Z,51.21
2022-09-07T10:04:45.027Z,51.17
2022-09-07T10:07:32.536Z,51.25
2022-09-07T10:10:18.505Z,51.23
2022-09-07T10:13:08.795Z,51.16
2022-09-07T10:15:56.656Z,51.12
2022-09-07T10:18:55.858Z,50.83
2022-09-07T10:21:43.605Z,50.87
2022-09-07T10:24:38.232Z,50.95
2022-09-07T10:27:36.226Z,50.55
2022-09-07T10:30:27.356Z,50.30
2022-09-07T10:37:04.445Z,50.00
2022-09-07T10:40:00.230Z,50.01
2022-09-07T10:47:01.675Z,49.55
2022-09-07T10:53:39.734Z,49.42
2022-09-07T10:56:30.858Z,49.35
2022-09-07T11:03:27.186Z,49.35
2022-09-07T11:06:20.465Z,49.24
2022-09-07T11:09:24.988Z,49.04
2022-09-07T11:12:17.782Z,48.88
2022-09-07T11:15:09.608Z,48.64
2022-09-07T11:18:02.187Z,48.50
2022-09-07T11:20:59.148Z,48.37
2022-09-07T11:23:53.366Z,48.25
2022-09-07T11:26:53.843Z,48.09
2022-09-07T11:29:57.298Z,47.84
2022-09-07T11:32:53.894Z,47.80
2022-09-07T11:35:45.409Z,47.35
2022-09-07T11:38:39.163Z,47.41
2022-09-07T11:41:30.643Z,46.89
2022-09-07T11:44:46.829Z,46.43
2022-09-07T11:47:50.718Z,46.08
2022-09-07T11:50:41.890Z,45.52
2022-09-07T11:53:31.048Z,44.99
2022-09-07T11:56:51.091Z,43.76
2022-09-07T11:59:42.753Z,43.77
2022-09-07T12:02:59.766Z,43.08
2022-09-07T12:06:17.683Z,42.75
2022-09-07T12:09:19.318Z,41.87
2022-09-07T12:12:08.272Z,41.36
2022-09-07T12:15:07.017Z,40.08
2022-09-07T12:18:02.820Z,40.31
2022-09-07T12:20:49.003Z,39.92
2022-09-07T12:23:35.093Z,39.55
2022-09-07T12:26:36.413Z,38.88
2022-09-07T12:29:24.775Z,39.17
2022-09-07T12:35:30.217Z,38.81
2022-09-07T12:38:19.111Z,38.62
2022-09-07T12:41:38.240Z,38.72
2022-09-07T12:44:28.685Z,38.68
2022-09-07T12:47:27.455Z,38.60
2022-09-07T12:50:23.935Z,38.65
2022-09-07T12:53:33.954Z,38.47
2022-09-07T12:56:45.115Z,38.47
2022-09-07T12:59:48.381Z,38.28
2022-09-07T13:10:23.968Z,38.04
2022-09-07T13:13:15.791Z,37.75
2022-09-07T13:16:01.684Z,37.67
2022-09-07T13:18:47.695Z,37.67
2022-09-07T13:21:33.405Z,37.56
2022-09-07T13:31:29.211Z,36.90
2022-09-07T13:34:36.836Z,36.54
2022-09-07T13:37:40.182Z,36.75
2022-09-07T13:40:40.546Z,36.80
2022-09-07T13:43:54.198Z,35.83
2022-09-07T13:47:25.913Z,35.91
2022-09-07T13:54:41.065Z,36.37
2022-09-07T13:57:31.303Z,36.53
2022-09-07T14:00:17.448Z,36.50
2022-09-07T14:03:07.100Z,36.38
2022-09-07T14:06:20.951Z,36.10
2022-09-07T14:09:18.092Z,36.18
2022-09-07T14:12:04.837Z,36.42
2022-09-07T14:15:29.499Z,35.72
2022-09-07T14:18:18.747Z,36.27
2022-09-07T14:21:05.737Z,36.18
2022-09-07T14:23:52.046Z,35.79
2022-09-07T14:26:46.868Z,35.62
2022-09-07T14:29:36.430Z,35.80
2022-09-07T14:32:25.577Z,36.04
2022-09-07T14:35:18.321Z,35.72
2022-09-07T14:38:16.005Z,35.61
2022-09-07T14:41:05.311Z,35.91
2022-09-07T14:43:56.710Z,35.85
2022-09-07T14:46:49.618Z,35.88
2022-09-07T14:49:39.262Z,36.08
2022-09-07T14:52:43.374Z,35.97
2022-09-07T14:55:33.299Z,36.08
2022-09-07T14:58:21.756Z,36.12
2022-09-07T15:01:42.326Z,36.28
2022-09-07T15:04:31.239Z,36.46
2022-09-07T15:07:40.151Z,36.14
2022-09-07T15:10:36.827Z,36.62
2022-09-07T15:13:27.986Z,36.88
2022-09-07T15:16:24.339Z,36.84
2022-09-07T15:19:16.469Z,36.94
2022-09-07T15:22:05.370Z,37.08
2022-09-07T15:24:51.515Z,37.10
2022-09-07T15:27:38.615Z,37.04
2022-09-07T15:30:26.220Z,37.26
2022-09-07T15:33:12.292Z,37.06
2022-09-07T15:35:58.858Z,37.46
2022-09-07T15:39:00.458Z,37.34
2022-09-07T15:41:47.698Z,37.33
2022-09-07T15:44:33.630Z,37.38
2022-09-07T15:50:25.675Z,37.57
2022-09-07T15:56:20.905Z,37.65
2022-09-07T15:59:06.789Z,37.77
2022-09-07T16:01:53.044Z,37.66
2022-09-07T16:04:39.247Z,37.99
2022-09-07T16:08:24.678Z,37.84
2022-09-07T16:10:32.743Z,38.00
2022-09-07T16:13:18.788Z,38.13
2022-09-07T16:16:08.124Z,38.53
2022-09-07T16:18:54.197Z,38.46
2022-09-07T16:21:41.047Z,38.54
2022-09-07T16:24:28.406Z,38.76
2022-09-07T16:27:14.913Z,38.85
2022-09-07T16:30:01.027Z,39.18
2022-09-07T16:32:46.979Z,39.09
2022-09-07T16:35:33.065Z,39.21
2022-09-07T16:41:28.548Z,39.52
2022-09-07T16:44:16.351Z,39.69
2022-09-07T16:47:02.478Z,39.73
2022-09-07T16:49:49.867Z,40.07
2022-09-07T16:52:36.076Z,40.26
2022-09-07T16:55:21.945Z,40.84
2022-09-07T17:01:16.197Z,41.10
2022-09-07T17:04:05.531Z,41.07
2022-09-07T17:06:56.066Z,41.65
2022-09-07T17:09:42.609Z,41.54
2022-09-07T17:12:28.511Z,41.85
2022-09-07T17:15:14.812Z,42.02
2022-09-07T17:18:00.910Z,42.13
2022-09-07T17:20:58.625Z,42.46
2022-09-07T17:23:51.954Z,42.09
2022-09-07T17:26:42.884Z,42.53
2022-09-07T17:29:33.832Z,42.59
2022-09-07T17:32:24.629Z,42.98
2022-09-07T17:35:11.402Z,42.92
2022-09-07T17:37:57.919Z,43.06
2022-09-07T17:40:44.229Z,43.27
2022-09-07T17:43:46.046Z,43.38
2022-09-07T17:46:32.851Z,43.44
2022-09-07T17:49:19.027Z,43.43
2022-09-07T17:52:05.297Z,43.74
2022-09-07T17:54:51.197Z,43.72
2022-09-07T17:57:37.104Z,43.81
2022-09-07T18:00:22.841Z,43.89
2022-09-07T18:03:08.668Z,44.06
2022-09-07T18:05:55.254Z,44.10
2022-09-07T18:08:41.191Z,44.52
2022-09-07T18:14:33.229Z,44.48
2022-09-07T18:17:18.973Z,44.63
2022-09-07T18:20:04.968Z,44.78
2022-09-07T18:22:51.115Z,44.78
2022-09-07T18:25:37.181Z,44.92
2022-09-07T18:31:29.051Z,45.11
2022-09-07T18:34:14.900Z,45.24
2022-09-07T18:37:01.214Z,45.43
2022-09-07T18:39:48.967Z,45.24
2022-09-07T18:42:35.070Z,45.62
2022-09-07T18:45:28.779Z,45.47
2022-09-07T18:48:14.619Z,46.72
2022-09-07T18:51:01.869Z,45.65
2022-09-07T18:53:48.061Z,45.71
2022-09-07T18:56:33.918Z,45.68
2022-09-07T18:59:19.871Z,45.76
2022-09-07T19:02:08.025Z,45.90
2022-09-07T19:08:03.495Z,46.11
2022-09-07T19:10:49.898Z,46.32
2022-09-07T19:13:36.768Z,46.37
2022-09-07T19:16:23.044Z,46.46
2022-09-07T19:19:11.455Z,46.46
2022-09-07T19:21:58.374Z,46.62
2022-09-07T19:24:44.086Z,46.72
2022-09-07T19:27:32.852Z,46.76
2022-09-07T19:30:18.659Z,46.79
2022-09-07T19:33:07.020Z,46.86
2022-09-07T19:35:52.735Z,46.94
2022-09-07T19:38:38.461Z,47.00
2022-09-07T19:41:24.912Z,46.95
2022-09-07T19:44:10.740Z,47.01
2022-09-07T19:46:56.786Z,46.95
2022-09-07T19:49:42.609Z,47.02
2022-09-07T19:52:29.217Z,47.19
2022-09-07T19:55:15.801Z,47.30
2022-09-07T19:58:01.796Z,47.29
2022-09-07T20:00:47.592Z,47.38
2022-09-07T20:03:33.769Z,47.49
2022-09-07T20:06:19.695Z,47.56
2022-09-07T20:09:07.468Z,47.51
2022-09-07T20:11:54.055Z,47.68
2022-09-07T20:14:40.051Z,47.76
2022-09-07T20:17:26.052Z,47.80
2022-09-07T20:20:12.222Z,47.92
2022-09-07T20:22:58.253Z,47.97
2022-09-07T20:25:44.979Z,47.94
2022-09-07T20:28:31.348Z,48.07
2022-09-07T20:31:20.345Z,48.07
2022-09-07T20:34:06.422Z,48.02
2022-09-07T20:36:52.581Z,48.18
2022-09-07T20:39:39.585Z,48.11
2022-09-07T20:42:25.766Z,48.31
2022-09-07T20:45:11.570Z,48.18
2022-09-07T20:47:57.394Z,48.34
2022-09-07T20:50:43.291Z,48.39
2022-09-07T20:53:29.115Z,48.61
2022-09-07T20:56:17.760Z,48.63
2022-09-07T20:59:04.391Z,48.90
2022-09-07T21:01:50.469Z,48.99
2022-09-07T21:04:36.705Z,49.04
2022-09-07T21:07:22.682Z,49.11
2022-09-07T21:10:09.215Z,49.24
2022-09-07T21:12:55.049Z,49.15
2022-09-07T21:15:42.699Z,49.26
2022-09-07T21:18:28.402Z,49.24
2022-09-07T21:21:21.312Z,49.09
2022-09-07T21:24:18.692Z,49.30
2022-09-07T21:27:04.599Z,49.30
2022-09-07T21:29:50.716Z,49.14
2022-09-07T21:32:36.473Z,49.15
2022-09-07T21:35:22.832Z,49.24
2022-09-07T21:39:17.359Z,49.48
2022-09-07T21:42:04.505Z,49.39
2022-09-07T21:44:50.415Z,49.43
2022-09-07T21:47:36.213Z,49.42
2022-09-07T21:50:21.873Z,49.53
2022-09-07T21:53:07.776Z,49.52
2022-09-07T21:56:00.478Z,49.53
2022-09-07T21:58:46.455Z,49.63
2022-09-07T22:01:32.432Z,49.63
2022-09-07T22:04:18.294Z,49.71
2022-09-07T22:07:04.239Z,49.61
2022-09-07T22:09:50.222Z,49.75
2022-09-07T22:12:35.989Z,49.75
2022-09-07T22:15:21.709Z,49.79
2022-09-07T22:18:10.149Z,49.86
2022-09-07T22:21:10.181Z,50.07
2022-09-07T22:23:58.784Z,50.00
2022-09-07T22:26:44.860Z,50.08
2022-09-07T22:29:30.469Z,49.93
2022-09-07T22:32:16.166Z,50.03
2022-09-07T22:35:01.790Z,50.10
2022-09-07T22:37:47.591Z,50.08
2022-09-07T22:40:33.434Z,50.17
2022-09-07T22:43:19.405Z,50.17
2022-09-07T22:46:05.445Z,50.25
2022-09-07T22:48:57.069Z,50.23
2022-09-07T22:51:43.929Z,50.24
2022-09-07T22:54:29.822Z,50.18
2022-09-07T22:57:15.843Z,50.38
2022-09-07T23:00:01.913Z,50.48
2022-09-07T23:02:48.116Z,50.52
2022-09-07T23:05:37.508Z,50.56
2022-09-07T23:08:26.559Z,50.68
2022-09-07T23:11:12.346Z,50.65
2022-09-07T23:14:00.593Z,50.63
2022-09-07T23:16:46.575Z,50.78
2022-09-07T23:19:32.291Z,50.68
2022-09-07T23:22:18.204Z,50.81
2022-09-07T23:25:04.633Z,50.77
2022-09-07T23:27:50.228Z,50.72
2022-09-07T23:30:36.211Z,50.51
2022-09-07T23:33:22.169Z,51.06
2022-09-07T23:36:08.399Z,50.88
2022-09-07T23:38:58.942Z,51.05
2022-09-07T23:41:44.869Z,51.07
2022-09-07T23:44:31.373Z,51.21
2022-09-07T23:47:17.680Z,51.17
2022-09-07T23:50:04.153Z,51.19
2022-09-07T23:52:50.141Z,51.00
2022-09-07T23:55:35.929Z,51.09
2022-09-07T23:58:22.442Z,51.08
